createdAt,value
2019-05-05T00:04:09.146Z,97684.00
2019-05-05T00:08:11.834Z,97683.00
2019-05-05T00:12:14.770Z,97682.00
2019-05-05T00:16:17.544Z,97687.00
2019-05-05T00:20:18.636Z,97687.00
2019-05-05T00:24:19.550Z,97688.00
2019-05-05T00:28:20.536Z,97693.00
2019-05-05T00:32:21.644Z,97689.00
2019-05-05T00:36:24.430Z,97691.00
2019-05-05T00:40:25.474Z,97698.00
2019-05-05T00:44:26.341Z,97704.00
2019-05-05T00:48:31.894Z,97714.00
2019-05-05T00:52:34.976Z,97707.00
2019-05-05T00:56:35.539Z,97709.00
2019-05-05T01:00:50.480Z,97702.00
2019-05-05T01:05:04.386Z,97717.00
2019-05-05T01:09:07.465Z,97717.00
2019-05-05T01:13:08.759Z,97714.00
2019-05-05T01:17:09.808Z,97722.00
2019-05-05T01:21:10.754Z,97725.00
2019-05-05T01:25:14.657Z,97724.00
2019-05-05T01:29:15.499Z,97728.00
2019-05-05T01:33:25.047Z,97726.00
2019-05-05T01:37:34.832Z,97731.00
2019-05-05T01:41:37.908Z,97732.00
2019-05-05T01:45:38.888Z,97740.00
2019-05-05T01:49:39.775Z,97738.00
2019-05-05T01:53:40.743Z,97747.00
2019-05-05T01:57:42.021Z,97757.00
2019-05-05T02:01:44.567Z,97762.00
2019-05-05T02:05:45.786Z,97769.00
2019-05-05T02:09:46.770Z,97767.00
2019-05-05T02:13:47.709Z,97761.00
2019-05-05T02:17:48.599Z,97784.00
2019-05-05T02:21:49.678Z,97776.00
2019-05-05T02:25:50.688Z,97784.00
2019-05-05T02:29:54.897Z,97792.00
2019-05-05T02:33:56.780Z,97798.00
2019-05-05T02:37:58.055Z,97787.00
2019-05-05T02:41:59.304Z,97798.00
2019-05-05T02:46:05.686Z,97813.00
2019-05-05T02:50:07.453Z,97814.00
2019-05-05T02:54:09.009Z,97806.00
2019-05-05T02:58:10.095Z,97827.00
2019-05-05T03:02:14.457Z,97837.00
2019-05-05T03:06:15.748Z,97834.00
2019-05-05T03:10:16.799Z,97844.00
2019-05-05T03:14:19.380Z,97854.00
2019-05-05T03:18:20.944Z,97858.00
2019-05-05T03:22:23.699Z,97854.00
2019-05-05T03:26:25.198Z,97858.00
2019-05-05T03:30:26.879Z,97861.00
2019-05-05T03:34:28.843Z,97868.00
2019-05-05T03:38:30.422Z,97873.00
2019-05-05T03:42:33.875Z,97869.00
2019-05-05T03:46:36.371Z,97870.00
2019-05-05T03:50:37.687Z,97869.00
2019-05-05T03:54:38.876Z,97866.00
2019-05-05T03:58:39.852Z,97861.00
2019-05-05T04:02:45.384Z,97875.00
2019-05-05T04:06:47.264Z,97881.00
2019-05-05T04:10:48.338Z,97875.00
2019-05-05T04:14:50.111Z,97883.00
2019-05-05T04:18:59.042Z,97873.00
2019-05-05T04:22:59.898Z,97881.00
2019-05-05T04:27:00.747Z,97893.00
2019-05-05T04:31:01.626Z,97899.00
2019-05-05T04:35:04.616Z,97907.00
2019-05-05T04:39:05.897Z,97911.00
2019-05-05T04:43:06.779Z,97916.00
2019-05-05T04:47:14.521Z,97925.00
2019-05-05T04:51:20.122Z,97911.00
2019-05-05T04:55:21.132Z,97922.00
2019-05-05T04:59:23.502Z,97923.00
2019-05-05T05:03:34.482Z,97922.00
2019-05-05T05:07:35.262Z,97925.00
2019-05-05T05:11:36.124Z,97931.00
2019-05-05T05:15:37.002Z,97933.00
2019-05-05T05:19:37.902Z,97934.00
2019-05-05T05:23:38.894Z,97934.00
2019-05-05T05:27:39.771Z,97941.00
2019-05-05T05:31:40.788Z,97942.00
2019-05-05T05:35:43.594Z,97950.00
2019-05-05T05:39:55.483Z,97956.00
2019-05-05T05:43:58.313Z,97957.00
2019-05-05T05:48:14.437Z,97953.00
2019-05-05T05:52:19.031Z,97955.00
2019-05-05T05:56:18.355Z,97954.00
2019-05-05T06:00:19.312Z,97948.00
2019-05-05T06:04:20.392Z,97944.00
2019-05-05T06:08:21.401Z,97952.00
2019-05-05T06:12:24.465Z,97957.00
2019-05-05T06:16:25.134Z,97974.00
2019-05-05T06:20:26.022Z,97967.00
2019-05-05T06:24:26.887Z,97961.00
2019-05-05T06:28:27.796Z,97973.00
2019-05-05T06:32:28.789Z,97974.00
2019-05-05T06:36:29.826Z,97978.00
2019-05-05T06:40:49.176Z,97987.00
2019-05-05T06:44:53.492Z,97986.00
2019-05-05T06:48:54.527Z,97986.00
2019-05-05T06:52:55.391Z,97984.00
2019-05-05T06:56:56.397Z,97983.00
2019-05-05T07:00:57.372Z,97975.00
2019-05-05T07:04:58.254Z,97990.00
2019-05-05T07:08:59.171Z,97986.00
2019-05-05T07:13:00.086Z,97970.00
2019-05-05T07:17:01.127Z,97967.00
2019-05-05T07:21:03.620Z,97972.00
2019-05-05T07:25:05.039Z,97979.00
2019-05-05T07:29:06.046Z,97977.00
2019-05-05T07:33:07.246Z,97971.00
2019-05-05T07:37:08.211Z,97978.00
2019-05-05T07:41:09.178Z,97988.00
2019-05-05T07:45:21.806Z,97999.00
2019-05-05T07:49:13.877Z,97991.00
2019-05-05T07:53:17.885Z,97996.00
2019-05-05T07:57:18.032Z,97994.00
2019-05-05T08:01:19.247Z,97998.00
2019-05-05T08:05:20.191Z,97997.00
2019-05-05T08:09:24.526Z,98007.00
2019-05-05T08:13:24.390Z,98001.00
2019-05-05T08:17:27.338Z,98015.00
2019-05-05T08:21:28.207Z,98006.00
2019-05-05T08:25:39.826Z,98018.00
2019-05-05T08:29:39.052Z,98028.00
2019-05-05T08:33:39.951Z,98029.00
2019-05-05T08:37:40.850Z,98012.00
2019-05-05T08:41:44.485Z,98016.00
2019-05-05T08:45:44.544Z,98005.00
2019-05-05T08:49:45.405Z,98014.00
2019-05-05T08:53:48.312Z,98007.00
2019-05-05T08:57:49.607Z,98013.00
2019-05-05T09:01:50.653Z,98014.00
2019-05-05T09:05:51.537Z,98026.00
2019-05-05T09:09:54.498Z,98015.00
2019-05-05T09:13:55.522Z,98017.00
2019-05-05T09:17:56.567Z,98011.00
2019-05-05T09:21:57.454Z,98012.00
2019-05-05T09:26:00.310Z,98014.00
2019-05-05T09:30:03.764Z,98009.00
2019-05-05T09:34:04.289Z,97996.00
2019-05-05T09:38:05.469Z,97994.00
2019-05-05T09:42:06.443Z,98005.00
2019-05-05T09:46:07.357Z,98014.00
2019-05-05T09:50:08.672Z,98021.00
2019-05-05T09:54:13.889Z,98021.00
2019-05-05T09:58:13.741Z,98021.00
2019-05-05T10:02:15.141Z,98025.00
2019-05-05T10:06:16.142Z,98026.00
2019-05-05T10:10:17.719Z,98024.00
2019-05-05T10:14:18.824Z,98024.00
2019-05-05T10:18:19.779Z,98025.00
2019-05-05T10:22:20.695Z,98021.00
2019-05-05T10:26:23.779Z,98031.00
2019-05-05T10:30:24.616Z,98028.00
2019-05-05T10:34:25.620Z,98036.00
2019-05-05T10:38:26.640Z,98033.00
2019-05-05T10:42:33.637Z,98031.00
2019-05-05T10:46:34.768Z,98034.00
2019-05-05T10:50:35.849Z,98034.00
2019-05-05T10:54:44.046Z,98032.00
2019-05-05T10:58:39.732Z,98042.00
2019-05-05T11:02:40.829Z,98040.00
2019-05-05T11:06:43.703Z,98041.00
2019-05-05T11:10:45.282Z,98053.00
2019-05-05T11:14:46.321Z,98044.00
2019-05-05T11:18:47.218Z,98051.00
2019-05-05T11:22:48.150Z,98052.00
2019-05-05T11:26:49.159Z,98037.00
2019-05-05T11:30:50.248Z,98048.00
2019-05-05T11:34:51.256Z,98052.00
2019-05-05T11:38:53.681Z,98057.00
2019-05-05T11:42:54.834Z,98052.00
2019-05-05T11:46:55.830Z,98056.00
2019-05-05T11:50:56.936Z,98054.00
2019-05-05T11:55:11.293Z,98060.00
2019-05-05T11:59:03.726Z,98049.00
2019-05-05T12:03:04.449Z,98053.00
2019-05-05T12:07:05.721Z,98056.00
2019-05-05T12:11:07.035Z,98058.00
2019-05-05T12:15:08.162Z,98059.00
2019-05-05T12:19:11.096Z,98063.00
2019-05-05T12:23:11.996Z,98059.00
2019-05-05T12:27:18.088Z,98055.00
2019-05-05T12:31:20.854Z,98053.00
2019-05-05T12:35:23.478Z,98045.00
2019-05-05T12:39:24.436Z,98056.00
2019-05-05T12:43:25.479Z,98064.00
2019-05-05T12:47:34.338Z,98063.00
2019-05-05T12:51:35.308Z,98050.00
2019-05-05T12:55:41.527Z,98043.00
2019-05-05T12:59:39.129Z,98053.00
2019-05-05T13:03:40.215Z,98055.00
2019-05-05T13:07:41.621Z,98052.00
2019-05-05T13:11:43.648Z,98057.00
2019-05-05T13:15:44.833Z,98046.00
2019-05-05T13:19:47.734Z,98051.00
2019-05-05T13:23:56.589Z,98051.00
2019-05-05T13:27:57.582Z,98049.00
2019-05-05T13:31:58.554Z,98041.00
2019-05-05T13:35:59.525Z,98056.00
2019-05-05T13:40:01.249Z,98067.00
2019-05-05T13:44:04.686Z,98061.00
2019-05-05T13:48:05.760Z,98050.00
2019-05-05T13:52:06.858Z,98051.00
2019-05-05T13:56:11.812Z,98048.00
2019-05-05T14:00:14.094Z,98035.00
2019-05-05T14:04:15.090Z,98034.00
2019-05-05T14:08:16.022Z,98039.00
2019-05-05T14:12:17.018Z,98033.00
2019-05-05T14:16:18.114Z,97970.00
2019-05-05T14:20:19.042Z,98030.00
2019-05-05T14:24:21.889Z,98029.00
2019-05-05T14:28:23.454Z,98026.00
2019-05-05T14:32:29.499Z,98022.00
2019-05-05T14:36:33.533Z,98009.00
2019-05-05T14:40:34.933Z,98012.00
2019-05-05T14:44:35.919Z,98014.00
2019-05-05T14:48:37.580Z,98022.00
2019-05-05T14:52:38.623Z,98014.00
2019-05-05T14:56:39.566Z,98031.00
2019-05-05T15:00:40.587Z,98023.00
2019-05-05T15:04:44.023Z,98025.00
2019-05-05T15:08:54.488Z,98031.00
2019-05-05T15:12:58.738Z,98029.00
2019-05-05T15:16:59.634Z,98025.00
2019-05-05T15:21:00.986Z,98024.00
2019-05-05T15:25:04.226Z,98028.00
2019-05-05T15:29:05.321Z,98014.00
2019-05-05T15:33:06.456Z,98014.00
2019-05-05T15:37:07.478Z,98015.00
2019-05-05T15:41:08.466Z,98016.00
2019-05-05T15:45:09.825Z,98018.00
2019-05-05T15:49:11.018Z,98024.00
2019-05-05T15:53:11.940Z,98025.00
2019-05-05T15:57:14.899Z,98015.00
2019-05-05T16:01:15.696Z,98018.00
2019-05-05T16:05:16.783Z,98030.00
2019-05-05T16:09:17.713Z,98031.00
2019-05-05T16:13:18.723Z,98031.00
2019-05-05T16:17:38.129Z,98040.00
2019-05-05T16:21:41.023Z,98046.00
2019-05-05T16:25:42.162Z,98044.00
2019-05-05T16:29:44.219Z,98044.00
2019-05-05T16:33:45.324Z,98038.00
2019-05-05T16:37:46.397Z,98038.00
2019-05-05T16:41:47.341Z,98037.00
2019-05-05T16:45:48.621Z,98041.00
2019-05-05T16:49:49.535Z,98037.00
2019-05-05T16:53:50.423Z,98052.00
2019-05-05T16:57:51.576Z,98064.00
2019-05-05T17:01:54.109Z,98066.00
2019-05-05T17:05:57.958Z,98069.00
2019-05-05T17:09:58.381Z,98079.00
2019-05-05T17:14:10.333Z,98087.00
2019-05-05T17:18:26.378Z,98087.00
2019-05-05T17:22:26.850Z,98102.00
2019-05-05T17:26:27.840Z,98087.00
2019-05-05T17:30:28.988Z,98088.00
2019-05-05T17:34:29.887Z,98086.00
2019-05-05T17:38:30.821Z,98087.00
2019-05-05T17:42:50.382Z,98084.00
2019-05-05T17:46:53.799Z,98086.00
2019-05-05T17:50:56.871Z,98085.00
2019-05-05T17:54:58.886Z,98084.00
2019-05-05T17:58:59.748Z,98088.00
2019-05-05T18:03:00.656Z,98077.00
2019-05-05T18:07:09.617Z,98081.00
2019-05-05T18:11:18.287Z,98087.00
2019-05-05T18:15:37.994Z,98089.00
2019-05-05T18:19:38.956Z,98061.00
2019-05-05T18:23:39.843Z,98091.00
2019-05-05T18:27:40.897Z,98092.00
2019-05-05T18:31:41.782Z,98103.00
2019-05-05T18:35:44.385Z,98105.00
2019-05-05T18:39:45.737Z,98106.00
2019-05-05T18:43:55.304Z,98115.00
2019-05-05T18:47:56.622Z,98115.00
2019-05-05T18:51:58.150Z,98118.00
2019-05-05T18:55:59.186Z,98115.00
2019-05-05T19:00:00.183Z,98113.00
2019-05-05T19:04:04.228Z,98121.00
2019-05-05T19:08:07.292Z,98120.00
2019-05-05T19:12:10.249Z,98130.00
2019-05-05T19:16:11.456Z,98143.00
2019-05-05T19:20:18.041Z,98134.00
2019-05-05T19:24:18.922Z,98136.00
2019-05-05T19:28:19.808Z,98135.00
2019-05-05T19:32:20.977Z,98141.00
2019-05-05T19:36:22.206Z,98147.00
2019-05-05T19:40:24.336Z,98144.00
2019-05-05T19:44:26.175Z,98148.00
2019-05-05T19:48:27.321Z,98146.00
2019-05-05T19:52:28.315Z,98156.00
2019-05-05T19:56:29.252Z,98146.00
2019-05-05T20:00:30.101Z,98158.00
2019-05-05T20:04:31.124Z,98156.00
2019-05-05T20:08:40.520Z,98155.00
2019-05-05T20:12:35.901Z,98161.00
2019-05-05T20:16:44.901Z,98159.00
2019-05-05T20:20:45.959Z,98148.00
2019-05-05T20:24:46.965Z,98151.00
2019-05-05T20:28:47.842Z,98153.00
2019-05-05T20:32:59.893Z,98154.00
2019-05-05T20:37:05.446Z,98156.00
2019-05-05T20:41:11.089Z,98156.00
2019-05-05T20:45:14.622Z,98155.00
2019-05-05T20:49:15.685Z,98163.00
2019-05-05T20:53:16.619Z,98150.00
2019-05-05T20:57:17.598Z,98151.00
2019-05-05T21:01:18.619Z,98148.00
2019-05-05T21:05:19.511Z,98146.00
2019-05-05T21:09:20.537Z,98150.00
2019-05-05T21:13:21.519Z,98155.00
2019-05-05T21:17:24.125Z,98155.00
2019-05-05T21:21:27.437Z,98151.00
2019-05-05T21:25:30.328Z,98148.00
2019-05-05T21:29:39.472Z,98150.00
2019-05-05T21:33:34.881Z,98151.00
2019-05-05T21:37:37.958Z,98156.00
2019-05-05T21:41:39.077Z,98159.00
2019-05-05T21:45:40.298Z,98155.00
2019-05-05T21:49:41.294Z,98153.00
2019-05-05T21:53:47.081Z,98157.00
2019-05-05T21:57:56.227Z,98155.00
2019-05-05T22:01:57.461Z,98144.00
2019-05-05T22:05:58.558Z,98151.00
2019-05-05T22:09:59.433Z,98147.00
2019-05-05T22:14:00.511Z,98138.00
2019-05-05T22:18:03.562Z,98145.00
2019-05-05T22:22:06.190Z,98142.00
2019-05-05T22:26:07.189Z,98137.00
2019-05-05T22:30:10.293Z,98153.00
2019-05-05T22:34:11.392Z,98146.00
2019-05-05T22:38:13.708Z,98136.00
2019-05-05T22:42:15.804Z,98140.00
2019-05-05T22:46:16.785Z,98133.00
2019-05-05T22:50:17.968Z,98130.00
2019-05-05T22:54:18.830Z,98127.00
2019-05-05T22:58:19.749Z,98135.00
2019-05-05T23:02:24.388Z,98144.00
2019-05-05T23:06:33.452Z,98143.00
2019-05-05T23:10:34.699Z,98132.00
2019-05-05T23:14:35.672Z,98142.00
2019-05-05T23:18:36.894Z,98139.00
2019-05-05T23:22:48.912Z,98139.00
2019-05-05T23:26:51.805Z,98138.00
2019-05-05T23:30:54.577Z,98140.00
2019-05-05T23:34:55.555Z,98138.00
2019-05-05T23:38:56.542Z,98148.00
2019-05-05T23:42:57.400Z,98142.00
2019-05-05T23:46:58.277Z,98147.00
2019-05-05T23:50:59.117Z,98139.00
2019-05-05T23:55:00.193Z,98145.00
2019-05-05T23:59:01.220Z,98140.00
